Main page
METAR-TAF:

METAR-TAF

Airports :

Bordeaux, France

Bordeaux–Mérignac Airport

latitude: 44-50N, longitude: 000-42W, elevation: 49 m

Current weather observation

The report was made 23 minutes ago, at 21:30 UTC
Wind 6 kt from the North/Northeast
Temperature 9°C
Humidity 61%
Pressure 1018 hPa
Visibility 10 km or more
no clouds below 1500 m and no cumulonimbus

METAR: LFBD 282130Z AUTO 02006KT CAVOK 09/02 Q1018 NOSIG

Time: 23:53 (21:53 UTC)

Forecast

The report was made 4 hours and 53 minutes ago, at 17:00 UTC
Forecast valid from 28 at 18 UTC to 29 at 24 UTC
Wind 5 kt from the North
Visibility 10 km or more
no clouds below 1500 m and no cumulonimbus
Becoming
from 29 at 07 UTC to 29 at 09 UTC
Wind 10 kt from the East/Southeast

TAF: LFBD 281700Z 2818/2924 36005KT CAVOK BECMG 2907/2909 12010KT TX21/2915Z TN05/2904Z

Weather observations and forecasts of more than 4000 airports (METAR and TAF reports).

The available stations are represented by yellow and red dots on the map.

Hover mouse over dot to see the name of the station.

Then click to see weather observations and forecasts.

To change the map : click on the green buttons with a black cross to zoom in, on the green button with a dash to zoom out, or on the green arrows for adjacent maps.


METAR-TAF: